Emden Airport

EDWE · 下萨克森, 德国

罗盘
风向 的 风向 040° Emden Airport 7/25
风: 13 kt, 4 beaufort

11 kt

7 kt
改变
0 1.000 2.000 3.000 4.000 5.000
OVC 700 ft
METAR EDWE 050520Z 04013KT 7000 -DZ OVC007 05/04 Q1020

METAR Emden Airport - EDWE/EME

Emden Airport是,德国中的小机场。 该机场有一条跑道: 7/25. 该领域的国际民航组织标志是EDWE 它的国际航空运输协会代码是EME.

这份报告是针对2022年12月5日 06:20, 当地时间在Emden Airport进行的。

机场观察

风向为040°,速度为13 kt。

可见度为7 km。

有乌云密布在700 ft的高度。 破损或更高的上限为700 ft。

当前天气为光 细雨。 温度为5 °C,阵风为-1 °C。 露点为4 °C,相对湿度为93%。 海平面上的气压为1020 hPa (QNH)。

白天

今天,太阳从08:29升起,在16:14降落。 这适用于Emden Airport,世界夏令时可能有所不同。 当地时间与世界标准时间之间的时差为+1 小时。 当前,没有夏令时有效。

公司介绍

我们没有关于这个机场的公司信息。

体会

到Vliegles.nl去找飞行课程,跳伞和其他飞行体验。 浏览页面,了解Emden Airport附近所有可用的活动。 你也可以使用搜索功能来寻找你所在地附近的特定飞行课程、跳伞或其他飞行体验。

跑道

Id 标题 侧风 逆风 侧风 %
7/25 073°-253° 7 kt 11 kt 54 %

逆风成分最大的方向会被突出显示,并用于横风计算。 这并不一定意味着这个方向在使用。

乌云

700 ft OVC 乌云密布

温度 & 天气

天气 光 细雨
温度 5 °C
露点 4 °C
相对湿度 93%
风寒 -1 °C
Kp-index 1 (0-9)

白天

日出
08:29 (1:52)
中午
12:21
日落
16:14

小工具

你想在你的网站上有一个关于Emden Airport的当前航空天气(METAR)的小部件吗?

显示HTML代码

我们和第三方通过cookies跟踪您在我们网站上的互联网行为。如果你继续,我们认为你同意我们的饼干政策